Temp: 9.3°C   Baro: 1005.8mb
  Wind: 4.0mph   Dir: SSW (208°)
  Rain: 0.4mm (0.0mm/hr)
  Sun: 0W/m2  Humidity: 93%

Historic data

Bath Spa Weather Station Historical Data
Daily Summary for March 14, 2023 Units:  Both    English   Metric
Daily Weekly Monthly Yearly Custom
  High: Low: Average:
Temperature: 49.6 °F /  9.8 °C 35.3 °F /  1.8 °C 42 °F /  5.6 °C
Dew Point: 42.1 °F /  5.6 °C 32.9 °F /  0.5 °C 35.8 °F /  2.1 °C
Humidity: 92% 57% 79%
Wind Speed: 13.6mph /  21.9km/h - 5.6mph /  9km/h
Wind Gust: 24mph /  38.6km/h - -
Wind- - West
Pressure: 29.99 in /  1015.5 hPa 29.25 in /  990.4 hPa -
Precipitation: 0.06 in /  1.52 mm    
Historical Graphs
 
 
Tabular Data for March 14, 2023
Time Temperature Dew Point Pressure Wind Wind Speed Wind Gust Humidity Rainfall Rate (Hourly) solar
00:09 44.8 °F /  7.1 °C 42.1 °F /  5.6 °C 29.25in /  990.4hPa WNW 7.2mph /  11.6km/h 14mph /  22.5km/h 90% 0.02in /  0.51mm 0 W/m2
00:14 44.6 °F /  7 °C 41.9 °F /  5.5 °C 29.25in /  990.4hPa WNW 8.2mph /  13.2km/h 15mph /  24.1km/h 90% 0.01in /  0.25mm 0 W/m2
00:19 44.4 °F /  6.9 °C 41.5 °F /  5.3 °C 29.26in /  990.7hPa WNW 7.8mph /  12.6km/h 17mph /  27.4km/h 89.2% 0.01in /  0.25mm 0 W/m2
00:24 44.2 °F /  6.8 °C 41.2 °F /  5.1 °C 29.26in /  990.7hPa WNW 10mph /  16.1km/h 16mph /  25.7km/h 88.6% 0.01in /  0.25mm 0 W/m2
00:29 44 °F /  6.7 °C 40.7 °F /  4.8 °C 29.27in /  991.1hPa WNW 9.2mph /  14.8km/h 22mph /  35.4km/h 88% 0.00in /  0mm 0 W/m2
00:34 43.9 °F /  6.6 °C 40.3 °F /  4.6 °C 29.27in /  991.1hPa West 7.2mph /  11.6km/h 17mph /  27.4km/h 87% 0.00in /  0mm 0 W/m2
00:39 43.6 °F /  6.4 °C 39.8 °F /  4.3 °C 29.28in /  991.4hPa WNW 7mph /  11.3km/h 16mph /  25.7km/h 86.4% 0.00in /  0mm 0 W/m2
00:44 43.4 °F /  6.3 °C 39.5 °F /  4.2 °C 29.29in /  991.8hPa WNW 9.8mph /  15.8km/h 16mph /  25.7km/h 86% 0.00in /  0mm 0 W/m2
00:49 43.2 °F /  6.2 °C 39.1 °F /  3.9 °C 29.30in /  992.1hPa WNW 8.8mph /  14.2km/h 15mph /  24.1km/h 85.2% 0.00in /  0mm 0 W/m2
00:54 43.1 °F /  6.2 °C 38.7 °F /  3.7 °C 29.30in /  992.1hPa West 12.6mph /  20.3km/h 19mph /  30.6km/h 84.4% 0.00in /  0mm 0 W/m2
00:59 42.9 °F /  6.1 °C 38.2 °F /  3.4 °C 29.31in /  992.4hPa West 8.6mph /  13.8km/h 18mph /  29km/h 83.4% 0.00in /  0mm 0 W/m2
01:04 42.7 °F /  5.9 °C 37.7 °F /  3.2 °C 29.31in /  992.4hPa WNW 8.5mph /  13.7km/h 18mph /  29km/h 82.2% 0.00in /  0mm 0 W/m2
01:09 42.5 °F /  5.8 °C 37.4 °F /  3 °C 29.32in /  992.8hPa WNW 8.2mph /  13.2km/h 16mph /  25.7km/h 81.8% 0.00in /  0mm 0 W/m2
01:14 42.4 °F /  5.8 °C 37 °F /  2.8 °C 29.33in /  993.1hPa WNW 7.4mph /  11.9km/h 15mph /  24.1km/h 81% 0.00in /  0mm 0 W/m2
01:19 42.4 °F /  5.8 °C 37 °F /  2.8 °C 29.33in /  993.1hPa West 5.5mph /  8.9km/h 10mph /  16.1km/h 81% 0.00in /  0mm 0 W/m2
01:24 42.3 °F /  5.7 °C 36.6 °F /  2.6 °C 29.34in /  993.5hPa WNW 6.7mph /  10.8km/h 13mph /  20.9km/h 80.2% 0.00in /  0mm 0 W/m2
01:29 42.2 °F /  5.7 °C 36.4 °F /  2.4 °C 29.34in /  993.5hPa WNW 7.2mph /  11.6km/h 13mph /  20.9km/h 80% 0.00in /  0mm 0 W/m2
01:34 42.1 °F /  5.6 °C 36.3 °F /  2.4 °C 29.35in /  993.8hPa WNW 6.3mph /  10.1km/h 14mph /  22.5km/h 80% 0.00in /  0mm 0 W/m2
01:39 42 °F /  5.6 °C 36.2 °F /  2.3 °C 29.35in /  993.8hPa WNW 5.6mph /  9km/h 10mph /  16.1km/h 80% 0.00in /  0mm 0 W/m2
01:44 41.7 °F /  5.4 °C 36 °F /  2.2 °C 29.35in /  993.8hPa WNW 4mph /  6.4km/h 8mph /  12.9km/h 80% 0.00in /  0mm 0 W/m2
01:49 41.6 °F /  5.3 °C 35.9 °F /  2.2 °C 29.35in /  993.8hPa WNW 8.2mph /  13.2km/h 12mph /  19.3km/h 80% 0.00in /  0mm 0 W/m2
01:54 41.5 °F /  5.3 °C 35.8 °F /  2.1 °C 29.36in /  994.1hPa NW 6.8mph /  10.9km/h 15mph /  24.1km/h 80% 0.00in /  0mm 0 W/m2
01:59 41.6 °F /  5.3 °C 35.8 °F /  2.1 °C 29.36in /  994.1hPa WNW 7.4mph /  11.9km/h 14mph /  22.5km/h 79.4% 0.00in /  0mm 0 W/m2
02:04 41.7 °F /  5.4 °C 35.7 °F /  2.1 °C 29.36in /  994.1hPa WNW 7.8mph /  12.6km/h 16mph /  25.7km/h 78.8% 0.00in /  0mm 0 W/m2
02:08 41.5 °F /  5.3 °C 35.2 °F /  1.8 °C 29.36in /  994.1hPa WNW 9.6mph /  15.4km/h 14mph /  22.5km/h 78% 0.00in /  0mm 0 W/m2
02:14 41.5 °F /  5.3 °C 35.2 °F /  1.8 °C 29.37in /  994.5hPa WNW 6.4mph /  10.3km/h 11mph /  17.7km/h 78% 0.00in /  0mm 0 W/m2
02:19 41.3 °F /  5.2 °C 35 °F /  1.7 °C 29.37in /  994.5hPa West 5.1mph /  8.2km/h 10mph /  16.1km/h 78% 0.00in /  0mm 0 W/m2
02:24 40.9 °F /  4.9 °C 34.7 °F /  1.5 °C 29.38in /  994.8hPa WNW 4.9mph /  7.9km/h 8mph /  12.9km/h 78.2% 0.00in /  0mm 0 W/m2
02:29 40.5 °F /  4.7 °C 34.6 °F /  1.4 °C 29.38in /  994.8hPa West 4.5mph /  7.2km/h 7mph /  11.3km/h 79% 0.00in /  0mm 0 W/m2
02:34 40.3 °F /  4.6 °C 34.5 °F /  1.4 °C 29.39in /  995.1hPa West 3.7mph /  6km/h 9mph /  14.5km/h 80% 0.00in /  0mm 0 W/m2
02:39 40.1 °F /  4.5 °C 34.7 °F /  1.5 °C 29.39in /  995.1hPa West 4.6mph /  7.4km/h 9mph /  14.5km/h 80.8% 0.00in /  0mm 0 W/m2
02:44 40.2 °F /  4.6 °C 34.9 °F /  1.6 °C 29.39in /  995.1hPa WNW 6.6mph /  10.6km/h 12mph /  19.3km/h 81.2% 0.00in /  0mm 0 W/m2
02:49 40.2 °F /  4.6 °C 35.1 °F /  1.7 °C 29.39in /  995.1hPa WNW 4.6mph /  7.4km/h 9mph /  14.5km/h 81.8% 0.00in /  0mm 0 W/m2
02:54 40.3 °F /  4.6 °C 35.2 °F /  1.8 °C 29.40in /  995.5hPa WNW 5.9mph /  9.5km/h 9mph /  14.5km/h 82% 0.00in /  0mm 0 W/m2
02:59 40.3 °F /  4.6 °C 35.2 °F /  1.8 °C 29.40in /  995.5hPa WNW 4.5mph /  7.2km/h 9mph /  14.5km/h 82% 0.00in /  0mm 0 W/m2
03:04 40.1 °F /  4.5 °C 34.9 °F /  1.6 °C 29.41in /  995.8hPa West 2.7mph /  4.3km/h 7mph /  11.3km/h 81.4% 0.00in /  0mm 0 W/m2
03:09 39.8 °F /  4.3 °C 34.6 °F /  1.4 °C 29.41in /  995.8hPa West 2.5mph /  4km/h 4mph /  6.4km/h 81.4% 0.00in /  0mm 0 W/m2
03:14 39.7 °F /  4.3 °C 34.7 °F /  1.5 °C 29.41in /  995.8hPa West 3.5mph /  5.6km/h 6mph /  9.7km/h 82% 0.00in /  0mm 0 W/m2
03:19 39.7 °F /  4.3 °C 34.6 °F /  1.4 °C 29.41in /  995.8hPa West 3.4mph /  5.5km/h 8mph /  12.9km/h 82% 0.00in /  0mm 0 W/m2
03:24 39.7 °F /  4.3 °C 34.7 °F /  1.5 °C 29.42in /  996.2hPa West 5.4mph /  8.7km/h 8mph /  12.9km/h 82% 0.00in /  0mm 0 W/m2
03:29 39.8 °F /  4.3 °C 34.8 °F /  1.6 °C 29.42in /  996.2hPa West 4.5mph /  7.2km/h 8mph /  12.9km/h 82% 0.00in /  0mm 0 W/m2
03:34 40 °F /  4.4 °C 35 °F /  1.7 °C 29.42in /  996.2hPa WNW 2.6mph /  4.2km/h 8mph /  12.9km/h 82.2% 0.00in /  0mm 0 W/m2
03:39 40.3 °F /  4.6 °C 35.2 °F /  1.8 °C 29.42in /  996.2hPa West 4.5mph /  7.2km/h 10mph /  16.1km/h 82% 0.00in /  0mm 0 W/m2
03:44 40.5 °F /  4.7 °C 35.4 °F /  1.9 °C 29.43in /  996.5hPa West 4.1mph /  6.6km/h 8mph /  12.9km/h 82% 0.00in /  0mm 0 W/m2
03:49 40.6 °F /  4.8 °C 35.5 °F /  1.9 °C 29.43in /  996.5hPa West 4.8mph /  7.7km/h 8mph /  12.9km/h 82% 0.00in /  0mm 0 W/m2
03:54 40.6 °F /  4.8 °C 35.3 °F /  1.8 °C 29.43in /  996.5hPa West 4.2mph /  6.8km/h 8mph /  12.9km/h 81.4% 0.00in /  0mm 0 W/m2
03:59 40.6 °F /  4.8 °C 35.2 °F /  1.8 °C 29.44in /  996.8hPa WNW 4.4mph /  7.1km/h 10mph /  16.1km/h 81% 0.00in /  0mm 0 W/m2
04:04 40.6 °F /  4.8 °C 35.2 °F /  1.8 °C 29.44in /  996.8hPa West 4.4mph /  7.1km/h 10mph /  16.1km/h 81% 0.00in /  0mm 0 W/m2
04:09 40.6 °F /  4.8 °C 35.2 °F /  1.8 °C 29.44in /  996.8hPa West 2.7mph /  4.3km/h 9mph /  14.5km/h 81% 0.00in /  0mm 0 W/m2
04:14 40.6 °F /  4.8 °C 35.2 °F /  1.8 °C 29.45in /  997.2hPa West 4.5mph /  7.2km/h 9mph /  14.5km/h 81% 0.00in /  0mm 0 W/m2
04:19 40.6 °F /  4.8 °C 35.2 °F /  1.8 °C 29.45in /  997.2hPa West 5.2mph /  8.4km/h 10mph /  16.1km/h 81% 0.00in /  0mm 0 W/m2
04:24 40.6 °F /  4.8 °C 35.2 °F /  1.8 °C 29.45in /  997.2hPa West 5mph /  8km/h 8mph /  12.9km/h 81% 0.00in /  0mm 0 W/m2
04:29 40.6 °F /  4.8 °C 35.2 °F /  1.8 °C 29.46in /  997.5hPa WNW 4.8mph /  7.7km/h 16mph /  25.7km/h 81% 0.00in /  0mm 0 W/m2
04:34 40.6 °F /  4.8 °C 35.2 °F /  1.8 °C 29.46in /  997.5hPa WNW 7.3mph /  11.7km/h 14mph /  22.5km/h 81% 0.00in /  0mm 0 W/m2
04:39 40.5 °F /  4.7 °C 35.1 °F /  1.7 °C 29.47in /  997.9hPa West 5.7mph /  9.2km/h 11mph /  17.7km/h 81% 0.00in /  0mm 0 W/m2
04:44 40.5 °F /  4.7 °C 35.1 °F /  1.7 °C 29.47in /  997.9hPa WNW 6.6mph /  10.6km/h 11mph /  17.7km/h 81% 0.00in /  0mm 0 W/m2
04:49 40.3 °F /  4.6 °C 34.9 °F /  1.6 °C 29.47in /  997.9hPa WNW 6.1mph /  9.8km/h 10mph /  16.1km/h 81% 0.00in /  0mm 0 W/m2
04:54 40.3 °F /  4.6 °C 34.9 °F /  1.6 °C 29.47in /  997.9hPa West 7.2mph /  11.6km/h 13mph /  20.9km/h 81% 0.00in /  0mm 0 W/m2
04:59 40.3 °F /  4.6 °C 34.9 °F /  1.6 °C 29.47in /  997.9hPa West 6.6mph /  10.6km/h 11mph /  17.7km/h 81% 0.00in /  0mm 0 W/m2
05:04 39.9 °F /  4.4 °C 34.5 °F /  1.4 °C 29.47in /  997.9hPa West 5.9mph /  9.5km/h 12mph /  19.3km/h 81% 0.00in /  0mm 0 W/m2
05:09 39.9 °F /  4.4 °C 34.7 °F /  1.5 °C 29.47in /  997.9hPa West 8.1mph /  13km/h 19mph /  30.6km/h 81.4% 0.00in /  0mm 0 W/m2
05:14 39.9 °F /  4.4 °C 34.9 °F /  1.6 °C 29.47in /  997.9hPa West 7mph /  11.3km/h 11mph /  17.7km/h 82% 0.00in /  0mm 0 W/m2
05:19 39.9 °F /  4.4 °C 34.9 °F /  1.6 °C 29.47in /  997.9hPa West 6.2mph /  10km/h 11mph /  17.7km/h 82% 0.00in /  0mm 0 W/m2
05:24 39.7 °F /  4.3 °C 34.7 °F /  1.5 °C 29.48in /  998.2hPa West 4.5mph /  7.2km/h 9mph /  14.5km/h 82% 0.00in /  0mm 0 W/m2
05:29 39.5 °F /  4.2 °C 34.4 °F /  1.3 °C 29.48in /  998.2hPa WNW 3.3mph /  5.3km/h 7mph /  11.3km/h 82% 0.00in /  0mm 0 W/m2
05:34 39.3 °F /  4.1 °C 34.6 °F /  1.4 °C 29.48in /  998.2hPa WNW 3.7mph /  6km/h 8mph /  12.9km/h 83% 0.00in /  0mm 0 W/m2
05:39 39 °F /  3.9 °C 34.3 °F /  1.3 °C 29.49in /  998.5hPa WNW 4.8mph /  7.7km/h 8mph /  12.9km/h 83% 0.00in /  0mm 0 W/m2
05:44 39 °F /  3.9 °C 34.3 °F /  1.3 °C 29.49in /  998.5hPa WNW 2.5mph /  4km/h 8mph /  12.9km/h 83% 0.00in /  0mm 0 W/m2
05:49 39 °F /  3.9 °C 34.3 °F /  1.3 °C 29.50in /  998.9hPa WNW 2.9mph /  4.7km/h 6mph /  9.7km/h 83% 0.00in /  0mm 0 W/m2
05:54 38.8 °F /  3.8 °C 34.3 °F /  1.3 °C 29.50in /  998.9hPa West 3.5mph /  5.6km/h 5mph /  8km/h 84% 0.00in /  0mm 0 W/m2
05:59 38.7 °F /  3.7 °C 34.2 °F /  1.2 °C 29.50in /  998.9hPa West 2.9mph /  4.7km/h 7mph /  11.3km/h 84% 0.00in /  0mm 0 W/m2
06:04 38.7 °F /  3.7 °C 34.2 °F /  1.2 °C 29.51in /  999.2hPa West 2.9mph /  4.7km/h 6mph /  9.7km/h 84% 0.00in /  0mm 0 W/m2
06:09 38.5 °F /  3.6 °C 34.2 °F /  1.2 °C 29.51in /  999.2hPa West 3.8mph /  6.1km/h 6mph /  9.7km/h 84% 0.00in /  0mm 0 W/m2
06:14 38.2 °F /  3.4 °C 33.9 °F /  1.1 °C 29.51in /  999.2hPa West 3.4mph /  5.5km/h 6mph /  9.7km/h 84% 0.00in /  0mm 0 W/m2
06:18 38 °F /  3.3 °C 33.7 °F /  0.9 °C 29.52in /  999.5hPa West 3.4mph /  5.5km/h 6mph /  9.7km/h 84% 0.00in /  0mm 0 W/m2
06:24 37.9 °F /  3.3 °C 33.8 °F /  1 °C 29.52in /  999.5hPa West 1.7mph /  2.7km/h 4mph /  6.4km/h 84.8% 0.00in /  0mm 0 W/m2
06:29 38 °F /  3.3 °C 33.9 °F /  1.1 °C 29.53in /  999.9hPa West 2.6mph /  4.2km/h 4mph /  6.4km/h 85% 0.00in /  0mm 9 W/m2
06:34 38.1 °F /  3.4 °C 34 °F /  1.1 °C 29.53in /  999.9hPa West 1.8mph /  2.9km/h 4mph /  6.4km/h 85% 0.00in /  0mm 12 W/m2
06:39 38.2 °F /  3.4 °C 34.1 °F /  1.2 °C 29.54in /  1000.2hPa West 2.4mph /  3.9km/h 5mph /  8km/h 85% 0.00in /  0mm 16 W/m2
06:44 38.2 °F /  3.4 °C 34.1 °F /  1.2 °C 29.54in /  1000.2hPa West 3.6mph /  5.8km/h 5mph /  8km/h 85% 0.00in /  0mm 16 W/m2
06:49 38.1 °F /  3.4 °C 34 °F /  1.1 °C 29.54in /  1000.2hPa WSW 3.3mph /  5.3km/h 6mph /  9.7km/h 85% 0.00in /  0mm 14 W/m2
06:54 38.1 °F /  3.4 °C 34.1 °F /  1.2 °C 29.54in /  1000.2hPa West 3.6mph /  5.8km/h 9mph /  14.5km/h 85.4% 0.00in /  0mm 18 W/m2
06:59 38.2 °F /  3.4 °C 34.4 °F /  1.3 °C 29.55in /  1000.6hPa West 3.1mph /  5km/h 5mph /  8km/h 86% 0.00in /  0mm 23 W/m2
07:04 38.3 °F /  3.5 °C 34.5 °F /  1.4 °C 29.55in /  1000.6hPa West 3.8mph /  6.1km/h 6mph /  9.7km/h 86% 0.00in /  0mm 25 W/m2
07:09 38.5 °F /  3.6 °C 34.7 °F /  1.5 °C 29.56in /  1000.9hPa West 2.1mph /  3.4km/h 5mph /  8km/h 86% 0.00in /  0mm 25 W/m2
07:14 38.7 °F /  3.7 °C 34.9 °F /  1.6 °C 29.56in /  1000.9hPa West 1.9mph /  3.1km/h 4mph /  6.4km/h 86% 0.00in /  0mm 33 W/m2
07:19 38.7 °F /  3.7 °C 35 °F /  1.7 °C 29.56in /  1000.9hPa West 1.1mph /  1.8km/h 5mph /  8km/h 86% 0.00in /  0mm 51 W/m2
07:24 39 °F /  3.9 °C 35.2 °F /  1.8 °C 29.57in /  1001.2hPa West 3.3mph /  5.3km/h 7mph /  11.3km/h 86% 0.00in /  0mm 51 W/m2
07:29 39.3 °F /  4.1 °C 35.5 °F /  1.9 °C 29.57in /  1001.2hPa West 2.8mph /  4.5km/h 6mph /  9.7km/h 86% 0.00in /  0mm 70 W/m2
07:34 39.6 °F /  4.2 °C 35.8 °F /  2.1 °C 29.58in /  1001.6hPa West 2.9mph /  4.7km/h 6mph /  9.7km/h 86% 0.00in /  0mm 107 W/m2
07:39 39.7 °F /  4.3 °C 36 °F /  2.2 °C 29.59in /  1001.9hPa WSW 3.7mph /  6km/h 6mph /  9.7km/h 86% 0.00in /  0mm 95 W/m2
07:43 39.7 °F /  4.3 °C 36 °F /  2.2 °C 29.59in /  1001.9hPa West 3.2mph /  5.1km/h 6mph /  9.7km/h 86% 0.00in /  0mm 40 W/m2
07:49 39.7 °F /  4.3 °C 36 °F /  2.2 °C 29.59in /  1001.9hPa West 3.2mph /  5.1km/h 5mph /  8km/h 86% 0.00in /  0mm 51 W/m2
07:54 39.7 °F /  4.3 °C 35.8 °F /  2.1 °C 29.60in /  1002.3hPa WNW 4mph /  6.4km/h 9mph /  14.5km/h 85.4% 0.00in /  0mm 69 W/m2
07:59 39.9 °F /  4.4 °C 35.8 °F /  2.1 °C 29.61in /  1002.6hPa West 4.8mph /  7.7km/h 8mph /  12.9km/h 85% 0.00in /  0mm 77 W/m2
08:04 39.9 °F /  4.4 °C 35.8 °F /  2.1 °C 29.61in /  1002.6hPa West 6.8mph /  10.9km/h 11mph /  17.7km/h 85% 0.00in /  0mm 91 W/m2
08:09 40 °F /  4.4 °C 35.9 °F /  2.2 °C 29.61in /  1002.6hPa West 4.8mph /  7.7km/h 11mph /  17.7km/h 85% 0.00in /  0mm 95 W/m2
08:14 40.3 °F /  4.6 °C 36.1 °F /  2.3 °C 29.62in /  1002.9hPa West 4.5mph /  7.2km/h 9mph /  14.5km/h 85% 0.00in /  0mm 79 W/m2
08:19 40.3 °F /  4.6 °C 36.1 °F /  2.3 °C 29.62in /  1002.9hPa West 4.7mph /  7.6km/h 11mph /  17.7km/h 85% 0.00in /  0mm 83 W/m2
08:24 40.5 °F /  4.7 °C 36.1 °F /  2.3 °C 29.63in /  1003.3hPa WNW 4.2mph /  6.8km/h 7mph /  11.3km/h 84.4% 0.00in /  0mm 74 W/m2
08:29 40.5 °F /  4.7 °C 36 °F /  2.2 °C 29.64in /  1003.6hPa West 4.2mph /  6.8km/h 8mph /  12.9km/h 84% 0.00in /  0mm 67 W/m2
08:34 40.5 °F /  4.7 °C 36 °F /  2.2 °C 29.64in /  1003.6hPa WNW 6.2mph /  10km/h 12mph /  19.3km/h 84% 0.00in /  0mm 83 W/m2
08:39 40.6 °F /  4.8 °C 36.1 °F /  2.3 °C 29.65in /  1003.9hPa WNW 4.5mph /  7.2km/h 12mph /  19.3km/h 84% 0.00in /  0mm 93 W/m2
08:44 40.8 °F /  4.9 °C 36.2 °F /  2.3 °C 29.65in /  1003.9hPa NW 7.4mph /  11.9km/h 14mph /  22.5km/h 83.6% 0.00in /  0mm 95 W/m2
08:49 41 °F /  5 °C 36.3 °F /  2.4 °C 29.66in /  1004.3hPa WNW 5.4mph /  8.7km/h 10mph /  16.1km/h 83% 0.00in /  0mm 100 W/m2
08:54 41 °F /  5 °C 36.2 °F /  2.3 °C 29.67in /  1004.6hPa NW 5.3mph /  8.5km/h 11mph /  17.7km/h 82.8% 0.00in /  0mm 123 W/m2
08:59 41 °F /  5 °C 36 °F /  2.2 °C 29.67in /  1004.6hPa NNW 8.2mph /  13.2km/h 14mph /  22.5km/h 82% 0.00in /  0mm 163 W/m2
09:04 40.8 °F /  4.9 °C 35.8 °F /  2.1 °C 29.67in /  1004.6hPa NNW 5.7mph /  9.2km/h 12mph /  19.3km/h 82% 0.00in /  0mm 127 W/m2
09:08 40.8 °F /  4.9 °C 35.8 °F /  2.1 °C 29.68in /  1005hPa North 4.2mph /  6.8km/h 9mph /  14.5km/h 82% 0.00in /  0mm 153 W/m2
09:14 41 °F /  5 °C 35.8 °F /  2.1 °C 29.68in /  1005hPa North 8mph /  12.9km/h 12mph /  19.3km/h 81.6% 0.00in /  0mm 123 W/m2
09:19 40.8 °F /  4.9 °C 35.5 °F /  1.9 °C 29.69in /  1005.3hPa North 6.2mph /  10km/h 16mph /  25.7km/h 81.2% 0.00in /  0mm 141 W/m2
09:24 40.8 °F /  4.9 °C 35.4 °F /  1.9 °C 29.70in /  1005.6hPa North 6.2mph /  10km/h 11mph /  17.7km/h 81% 0.00in /  0mm 199 W/m2
09:29 40.8 °F /  4.9 °C 35.4 °F /  1.9 °C 29.70in /  1005.6hPa NNW 5mph /  8km/h 11mph /  17.7km/h 81% 0.00in /  0mm 165 W/m2
09:34 41 °F /  5 °C 35.6 °F /  2 °C 29.71in /  1006hPa NNW 5.3mph /  8.5km/h 11mph /  17.7km/h 81% 0.00in /  0mm 144 W/m2
09:39 40.9 °F /  4.9 °C 35.5 °F /  1.9 °C 29.71in /  1006hPa NNW 4.5mph /  7.2km/h 9mph /  14.5km/h 81% 0.00in /  0mm 142 W/m2
09:44 41 °F /  5 °C 35.6 °F /  2 °C 29.71in /  1006hPa NW 4.1mph /  6.6km/h 10mph /  16.1km/h 81% 0.00in /  0mm 179 W/m2
09:49 41.2 °F /  5.1 °C 35.8 °F /  2.1 °C 29.72in /  1006.3hPa NW 6mph /  9.7km/h 11mph /  17.7km/h 81% 0.00in /  0mm 260 W/m2
09:54 41.5 °F /  5.3 °C 36.1 °F /  2.3 °C 29.72in /  1006.3hPa NNW 4.8mph /  7.7km/h 10mph /  16.1km/h 81% 0.00in /  0mm 209 W/m2
09:59 41.5 °F /  5.3 °C 36.1 °F /  2.3 °C 29.73in /  1006.7hPa NNE 5.7mph /  9.2km/h 11mph /  17.7km/h 81% 0.00in /  0mm 169 W/m2
10:04 41.5 °F /  5.3 °C 35.7 °F /  2.1 °C 29.73in /  1006.7hPa NNW 5.8mph /  9.3km/h 11mph /  17.7km/h 80% 0.00in /  0mm 243 W/m2
10:09 41.5 °F /  5.3 °C 35.7 °F /  2.1 °C 29.73in /  1006.7hPa NNW 3.6mph /  5.8km/h 11mph /  17.7km/h 80% 0.00in /  0mm 327 W/m2
10:14 42.3 °F /  5.7 °C 36.5 °F /  2.5 °C 29.74in /  1007hPa NNE 3.7mph /  6km/h 8mph /  12.9km/h 80% 0.00in /  0mm 327 W/m2
10:19 42.9 °F /  6.1 °C 37.1 °F /  2.8 °C 29.74in /  1007hPa NNE 3mph /  4.8km/h 8mph /  12.9km/h 80% 0.00in /  0mm 320 W/m2
10:24 42.6 °F /  5.9 °C 36.5 °F /  2.5 °C 29.75in /  1007.3hPa NNW 5.1mph /  8.2km/h 10mph /  16.1km/h 79% 0.00in /  0mm 294 W/m2
10:29 42.4 °F /  5.8 °C 36.3 °F /  2.4 °C 29.75in /  1007.3hPa NW 4.9mph /  7.9km/h 7mph /  11.3km/h 79% 0.00in /  0mm 188 W/m2
10:34 42.3 °F /  5.7 °C 36.1 °F /  2.3 °C 29.76in /  1007.7hPa NNW 3.9mph /  6.3km/h 9mph /  14.5km/h 79% 0.00in /  0mm 148 W/m2
10:39 42.4 °F /  5.8 °C 36.3 °F /  2.4 °C 29.76in /  1007.7hPa NNE 2.6mph /  4.2km/h 7mph /  11.3km/h 79% 0.00in /  0mm 262 W/m2
10:44 42.9 °F /  6.1 °C 36.8 °F /  2.7 °C 29.77in /  1008hPa NNW 2.8mph /  4.5km/h 9mph /  14.5km/h 79% 0.00in /  0mm 675 W/m2
10:49 42.8 °F /  6 °C 36.5 °F /  2.5 °C 29.77in /  1008hPa WNW 4.4mph /  7.1km/h 7mph /  11.3km/h 78.2% 0.00in /  0mm 357 W/m2
10:54 42.9 °F /  6.1 °C 36.6 °F /  2.6 °C 29.78in /  1008.4hPa NW 3.9mph /  6.3km/h 8mph /  12.9km/h 78% 0.00in /  0mm 329 W/m2
10:59 43.2 °F /  6.2 °C 36.8 °F /  2.7 °C 29.78in /  1008.4hPa WNW 2.9mph /  4.7km/h 6mph /  9.7km/h 78% 0.00in /  0mm 308 W/m2
11:04 43.9 °F /  6.6 °C 37.2 °F /  2.9 °C 29.78in /  1008.4hPa NW 3.9mph /  6.3km/h 9mph /  14.5km/h 77% 0.00in /  0mm 308 W/m2
11:09 43.7 °F /  6.5 °C 36.9 °F /  2.7 °C 29.78in /  1008.4hPa WNW 4.6mph /  7.4km/h 9mph /  14.5km/h 76.4% 0.00in /  0mm 155 W/m2
11:14 43.3 °F /  6.3 °C 36.3 °F /  2.4 °C 29.79in /  1008.7hPa WNW 7.3mph /  11.7km/h 12mph /  19.3km/h 76% 0.00in /  0mm 656 W/m2
11:19 43.5 °F /  6.4 °C 36.5 °F /  2.5 °C 29.79in /  1008.7hPa NW 4.9mph /  7.9km/h 9mph /  14.5km/h 76% 0.00in /  0mm 628 W/m2
11:24 43.4 °F /  6.3 °C 36.1 °F /  2.3 °C 29.79in /  1008.7hPa WNW 6.6mph /  10.6km/h 13mph /  20.9km/h 75% 0.00in /  0mm 598 W/m2
11:29 44 °F /  6.7 °C 36.2 °F /  2.3 °C 29.79in /  1008.7hPa WNW 5.8mph /  9.3km/h 11mph /  17.7km/h 73.8% 0.00in /  0mm 591 W/m2
11:34 44.7 °F /  7.1 °C 36.3 °F /  2.4 °C 29.79in /  1008.7hPa WNW 5mph /  8km/h 11mph /  17.7km/h 72.2% 0.00in /  0mm 621 W/m2
11:39 45 °F /  7.2 °C 36.5 °F /  2.5 °C 29.79in /  1008.7hPa NW 11.5mph /  18.5km/h 15mph /  24.1km/h 72% 0.00in /  0mm 663 W/m2
11:44 44.9 °F /  7.2 °C 36 °F /  2.2 °C 29.80in /  1009hPa NW 6.2mph /  10km/h 13mph /  20.9km/h 70.6% 0.00in /  0mm 698 W/m2
11:49 45 °F /  7.2 °C 35.8 °F /  2.1 °C 29.80in /  1009hPa North 7.2mph /  11.6km/h 13mph /  20.9km/h 70% 0.00in /  0mm 120 W/m2
11:54 45.1 °F /  7.3 °C 35.8 °F /  2.1 °C 29.80in /  1009hPa NNW 7.4mph /  11.9km/h 11mph /  17.7km/h 69.8% 0.00in /  0mm 629 W/m2
11:59 46.2 °F /  7.9 °C 36.8 °F /  2.7 °C 29.80in /  1009hPa WNW 2.8mph /  4.5km/h 9mph /  14.5km/h 69.4% 0.00in /  0mm 656 W/m2
12:04 46.7 °F /  8.2 °C 36.8 °F /  2.7 °C 29.80in /  1009hPa WNW 4.4mph /  7.1km/h 9mph /  14.5km/h 68.2% 0.00in /  0mm 680 W/m2
12:09 45.9 °F /  7.7 °C 35.9 °F /  2.2 °C 29.80in /  1009hPa WNW 5.4mph /  8.7km/h 8mph /  12.9km/h 67.8% 0.00in /  0mm 635 W/m2
12:14 46.1 °F /  7.8 °C 35.3 °F /  1.8 °C 29.80in /  1009hPa WNW 5.9mph /  9.5km/h 12mph /  19.3km/h 66% 0.00in /  0mm 756 W/m2
12:19 45.7 °F /  7.6 °C 34.7 °F /  1.5 °C 29.81in /  1009.4hPa WNW 5mph /  8km/h 11mph /  17.7km/h 65.2% 0.00in /  0mm 323 W/m2
12:24 45.9 °F /  7.7 °C 36 °F /  2.2 °C 29.81in /  1009.4hPa WNW 5.2mph /  8.4km/h 10mph /  16.1km/h 68% 0.00in /  0mm 756 W/m2
12:29 46.4 °F /  8 °C 36.6 °F /  2.6 °C 29.80in /  1009hPa WNW 5.6mph /  9km/h 11mph /  17.7km/h 68.4% 0.00in /  0mm 763 W/m2
12:34 47 °F /  8.3 °C 37 °F /  2.8 °C 29.81in /  1009.4hPa West 10.5mph /  16.9km/h 14mph /  22.5km/h 68.3% 0.00in /  0mm 766 W/m2
12:39 47 °F /  8.3 °C 36.5 °F /  2.5 °C 29.81in /  1009.4hPa West 9.8mph /  15.8km/h 14mph /  22.5km/h 66.8% 0.00in /  0mm 744 W/m2
12:44 47.4 °F /  8.6 °C 37.1 °F /  2.8 °C 29.81in /  1009.4hPa WSW 8.9mph /  14.3km/h 13mph /  20.9km/h 67.2% 0.00in /  0mm 735 W/m2
12:49 47.8 °F /  8.8 °C 36.8 °F /  2.7 °C 29.81in /  1009.4hPa West 7.8mph /  12.6km/h 13mph /  20.9km/h 65.2% 0.00in /  0mm 693 W/m2
12:54 47.5 °F /  8.6 °C 36 °F /  2.2 °C 29.81in /  1009.4hPa West 7.8mph /  12.6km/h 13mph /  20.9km/h 64.2% 0.00in /  0mm 686 W/m2
12:59 47.9 °F /  8.8 °C 36.8 °F /  2.7 °C 29.82in /  1009.7hPa West 4.8mph /  7.7km/h 13mph /  20.9km/h 65.2% 0.00in /  0mm 701 W/m2
13:04 47.7 °F /  8.7 °C 36.2 °F /  2.3 °C 29.82in /  1009.7hPa WNW 6.1mph /  9.8km/h 11mph /  17.7km/h 64% 0.00in /  0mm 715 W/m2
13:09 47.2 °F /  8.4 °C 35.4 °F /  1.9 °C 29.82in /  1009.7hPa West 6.2mph /  10km/h 13mph /  20.9km/h 63.2% 0.00in /  0mm 700 W/m2
13:14 47.7 °F /  8.7 °C 34.8 °F /  1.6 °C 29.82in /  1009.7hPa WNW 6mph /  9.7km/h 11mph /  17.7km/h 60.8% 0.00in /  0mm 696 W/m2
13:19 47.4 °F /  8.6 °C 34.8 °F /  1.6 °C 29.82in /  1009.7hPa NW 6.1mph /  9.8km/h 13mph /  20.9km/h 61.6% 0.00in /  0mm 128 W/m2
13:24 47.5 °F /  8.6 °C 35.3 °F /  1.8 °C 29.82in /  1009.7hPa WNW 4.7mph /  7.6km/h 10mph /  16.1km/h 62.5% 0.00in /  0mm 176 W/m2
13:29 47.6 °F /  8.7 °C 35 °F /  1.7 °C 29.82in /  1009.7hPa WNW 10.2mph /  16.4km/h 17mph /  27.4km/h 61.6% 0.00in /  0mm 636 W/m2
13:34 48 °F /  8.9 °C 35.1 °F /  1.7 °C 29.82in /  1009.7hPa WNW 6.6mph /  10.6km/h 16mph /  25.7km/h 60.8% 0.00in /  0mm 652 W/m2
13:39 48.4 °F /  9.1 °C 35.6 °F /  2 °C 29.82in /  1009.7hPa West 9.6mph /  15.4km/h 13mph /  20.9km/h 61% 0.00in /  0mm 650 W/m2
13:44 48 °F /  8.9 °C 35.4 °F /  1.9 °C 29.82in /  1009.7hPa West 8mph /  12.9km/h 13mph /  20.9km/h 61.4% 0.00in /  0mm 754 W/m2
13:49 49.3 °F /  9.6 °C 36.6 °F /  2.6 °C 29.83in /  1010hPa WNW 7.1mph /  11.4km/h 15mph /  24.1km/h 61.4% 0.00in /  0mm 752 W/m2
13:54 49.3 °F /  9.6 °C 35.6 °F /  2 °C 29.82in /  1009.7hPa West 10.6mph /  17.1km/h 16mph /  25.7km/h 59% 0.00in /  0mm 733 W/m2
13:59 49.2 °F /  9.6 °C 35.6 °F /  2 °C 29.83in /  1010hPa WNW 8.2mph /  13.2km/h 13mph /  20.9km/h 59.2% 0.00in /  0mm 589 W/m2
14:04 49.6 °F /  9.8 °C 35.6 °F /  2 °C 29.83in /  1010hPa West 11.4mph /  18.3km/h 17mph /  27.4km/h 58.4% 0.00in /  0mm 582 W/m2
14:09 49.3 °F /  9.6 °C 34.7 °F /  1.5 °C 29.83in /  1010hPa WNW 11mph /  17.7km/h 18mph /  29km/h 57% 0.00in /  0mm 555 W/m2
14:14 49.1 °F /  9.5 °C 35 °F /  1.7 °C 29.83in /  1010hPa West 7.8mph /  12.6km/h 18mph /  29km/h 58.2% 0.00in /  0mm 568 W/m2
14:19 48.5 °F /  9.2 °C 35.3 °F /  1.8 °C 29.83in /  1010hPa West 8mph /  12.9km/h 15mph /  24.1km/h 60.2% 0.00in /  0mm 137 W/m2
14:24 48.6 °F /  9.2 °C 36.2 °F /  2.3 °C 29.83in /  1010hPa West 6.6mph /  10.6km/h 13mph /  20.9km/h 62.2% 0.00in /  0mm 589 W/m2
14:29 48.9 °F /  9.4 °C 37.4 °F /  3 °C 29.83in /  1010hPa West 9.6mph /  15.4km/h 19mph /  30.6km/h 64.4% 0.00in /  0mm 573 W/m2
14:34 48.6 °F /  9.2 °C 37.2 °F /  2.9 °C 29.84in /  1010.4hPa West 11mph /  17.7km/h 20mph /  32.2km/h 64.5% 0.00in /  0mm 531 W/m2
14:39 48.4 °F /  9.1 °C 36.9 °F /  2.7 °C 29.84in /  1010.4hPa West 10.5mph /  16.9km/h 21mph /  33.8km/h 64.4% 0.00in /  0mm 520 W/m2
14:44 47.9 °F /  8.8 °C 37 °F /  2.8 °C 29.84in /  1010.4hPa West 9.6mph /  15.4km/h 17mph /  27.4km/h 65.6% 0.00in /  0mm 520 W/m2
14:49 47.9 °F /  8.8 °C 37.6 °F /  3.1 °C 29.84in /  1010.4hPa West 7.8mph /  12.6km/h 14mph /  22.5km/h 67.2% 0.00in /  0mm 475 W/m2
14:54 48.7 °F /  9.3 °C 37.7 °F /  3.2 °C 29.84in /  1010.4hPa West 6.6mph /  10.6km/h 18mph /  29km/h 65.6% 0.00in /  0mm 524 W/m2
14:59 48.9 °F /  9.4 °C 37.8 °F /  3.2 °C 29.84in /  1010.4hPa WSW 9.9mph /  15.9km/h 22mph /  35.4km/h 65% 0.00in /  0mm 520 W/m2
15:04 49.2 °F /  9.6 °C 38.6 °F /  3.7 °C 29.84in /  1010.4hPa West 5.8mph /  9.3km/h 17mph /  27.4km/h 66.6% 0.00in /  0mm 496 W/m2
15:09 49.3 °F /  9.6 °C 39.1 °F /  3.9 °C 29.85in /  1010.7hPa WSW 9.9mph /  15.9km/h 18mph /  29km/h 67.8% 0.00in /  0mm 434 W/m2
15:14 48.3 °F /  9.1 °C 38.8 °F /  3.8 °C 29.85in /  1010.7hPa West 10.4mph /  16.7km/h 19mph /  30.6km/h 69.6% 0.00in /  0mm 255 W/m2
15:19 48 °F /  8.9 °C 39.2 °F /  4 °C 29.85in /  1010.7hPa WSW 7.4mph /  11.9km/h 19mph /  30.6km/h 71.4% 0.00in /  0mm 427 W/m2
15:24 48.5 °F /  9.2 °C 39.5 °F /  4.2 °C 29.85in /  1010.7hPa West 8mph /  12.9km/h 15mph /  24.1km/h 71% 0.00in /  0mm 403 W/m2
15:29 48.1 °F /  8.9 °C 39.1 °F /  3.9 °C 29.85in /  1010.7hPa West 9.8mph /  15.8km/h 15mph /  24.1km/h 71% 0.00in /  0mm 396 W/m2
15:34 48.4 °F /  9.1 °C 39.1 °F /  3.9 °C 29.85in /  1010.7hPa West 6.7mph /  10.8km/h 14mph /  22.5km/h 70.2% 0.00in /  0mm 383 W/m2
15:39 48.5 °F /  9.2 °C 38 °F /  3.3 °C 29.85in /  1010.7hPa WSW 8.8mph /  14.2km/h 17mph /  27.4km/h 67% 0.00in /  0mm 381 W/m2
15:44 48.3 °F /  9.1 °C 36.6 °F /  2.6 °C 29.85in /  1010.7hPa WSW 7.9mph /  12.7km/h 18mph /  29km/h 63.8% 0.00in /  0mm 359 W/m2
15:49 48.2 °F /  9 °C 36.2 °F /  2.3 °C 29.85in /  1010.7hPa West 13.6mph /  21.9km/h 20mph /  32.2km/h 63% 0.00in /  0mm 353 W/m2
15:54 47.9 °F /  8.8 °C 35.9 °F /  2.2 °C 29.85in /  1010.7hPa WSW 11.4mph /  18.3km/h 24mph /  38.6km/h 63.2% 0.00in /  0mm 339 W/m2
15:59 47.9 °F /  8.8 °C 36.8 °F /  2.7 °C 29.85in /  1010.7hPa WSW 12.4mph /  20km/h 18mph /  29km/h 65.2% 0.00in /  0mm 320 W/m2
16:04 47.7 °F /  8.7 °C 37.2 °F /  2.9 °C 29.85in /  1010.7hPa West 9.9mph /  15.9km/h 20mph /  32.2km/h 67% 0.00in /  0mm 304 W/m2
16:09 47.6 °F /  8.7 °C 37.5 °F /  3.1 °C 29.85in /  1010.7hPa WSW 10.2mph /  16.4km/h 18mph /  29km/h 68.2% 0.00in /  0mm 290 W/m2
16:13 47.6 °F /  8.7 °C 37.8 °F /  3.2 °C 29.85in /  1010.7hPa West 11.3mph /  18.2km/h 18mph /  29km/h 69% 0.00in /  0mm 278 W/m2
16:19 47.5 °F /  8.6 °C 37.9 °F /  3.3 °C 29.85in /  1010.7hPa West 12.8mph /  20.6km/h 21mph /  33.8km/h 69.4% 0.00in /  0mm 264 W/m2
16:24 46.9 °F /  8.3 °C 36.7 °F /  2.6 °C 29.86in /  1011.1hPa West 9.6mph /  15.4km/h 23mph /  37km/h 67.8% 0.00in /  0mm 250 W/m2
16:29 46.7 °F /  8.2 °C 36.6 °F /  2.6 °C 29.85in /  1010.7hPa WNW 11.2mph /  18km/h 19mph /  30.6km/h 68% 0.00in /  0mm 232 W/m2
16:34 46.5 °F /  8.1 °C 36.8 °F /  2.7 °C 29.85in /  1010.7hPa WSW 12.8mph /  20.6km/h 23mph /  37km/h 68.6% 0.00in /  0mm 216 W/m2
16:39 46 °F /  7.8 °C 36.1 °F /  2.3 °C 29.86in /  1011.1hPa WNW 11.2mph /  18km/h 19mph /  30.6km/h 68% 0.00in /  0mm 206 W/m2
16:44 46 °F /  7.8 °C 35.7 °F /  2.1 °C 29.86in /  1011.1hPa West 8.5mph /  13.7km/h 19mph /  30.6km/h 67% 0.00in /  0mm 185 W/m2
16:49 46 °F /  7.8 °C 35.3 °F /  1.8 °C 29.86in /  1011.1hPa West 7.1mph /  11.4km/h 16mph /  25.7km/h 66.2% 0.00in /  0mm 169 W/m2
16:54 46 °F /  7.8 °C 34.6 °F /  1.4 °C 29.86in /  1011.1hPa WSW 10.4mph /  16.7km/h 19mph /  30.6km/h 64.2% 0.00in /  0mm 155 W/m2
16:59 46 °F /  7.8 °C 33.6 °F /  0.9 °C 29.86in /  1011.1hPa West 12mph /  19.3km/h 19mph /  30.6km/h 61.6% 0.00in /  0mm 135 W/m2
17:04 45.9 °F /  7.7 °C 32.9 °F /  0.5 °C 29.87in /  1011.4hPa West 10.6mph /  17.1km/h 16mph /  25.7km/h 60.4% 0.00in /  0mm 123 W/m2
17:09 45.6 °F /  7.6 °C 33 °F /  0.6 °C 29.87in /  1011.4hPa West 12.9mph /  20.8km/h 19mph /  30.6km/h 61% 0.00in /  0mm 105 W/m2
17:14 45.7 °F /  7.6 °C 33.7 °F /  0.9 °C 29.88in /  1011.7hPa West 8.2mph /  13.2km/h 14mph /  22.5km/h 62.8% 0.00in /  0mm 91 W/m2
17:19 45.4 °F /  7.4 °C 33.8 °F /  1 °C 29.88in /  1011.7hPa West 7.4mph /  11.9km/h 15mph /  24.1km/h 63.6% 0.00in /  0mm 77 W/m2
17:24 45.2 °F /  7.3 °C 34.1 °F /  1.2 °C 29.88in /  1011.7hPa WNW 9mph /  14.5km/h 14mph /  22.5km/h 64.8% 0.00in /  0mm 63 W/m2
17:29 45 °F /  7.2 °C 34.4 °F /  1.3 °C 29.88in /  1011.7hPa WSW 10.4mph /  16.7km/h 18mph /  29km/h 66.3% 0.00in /  0mm 54 W/m2
17:34 44.7 °F /  7.1 °C 35 °F /  1.7 °C 29.88in /  1011.7hPa West 9.4mph /  15.1km/h 16mph /  25.7km/h 68.4% 0.00in /  0mm 46 W/m2
17:39 44.4 °F /  6.9 °C 35.2 °F /  1.8 °C 29.89in /  1012.1hPa West 8mph /  12.9km/h 15mph /  24.1km/h 69.8% 0.00in /  0mm 42 W/m2
17:44 44.3 °F /  6.8 °C 35.5 °F /  1.9 °C 29.89in /  1012.1hPa WSW 7.5mph /  12.1km/h 15mph /  24.1km/h 71% 0.00in /  0mm 32 W/m2
17:49 44.2 °F /  6.8 °C 35.7 °F /  2.1 °C 29.89in /  1012.1hPa West 8.7mph /  14km/h 14mph /  22.5km/h 72% 0.00in /  0mm 25 W/m2
17:54 43.9 °F /  6.6 °C 35.7 °F /  2.1 °C 29.90in /  1012.4hPa West 9mph /  14.5km/h 16mph /  25.7km/h 72.8% 0.00in /  0mm 19 W/m2
17:59 43.5 °F /  6.4 °C 35.7 °F /  2.1 °C 29.90in /  1012.4hPa WNW 9.2mph /  14.8km/h 15mph /  24.1km/h 73.8% 0.00in /  0mm 12 W/m2
18:04 43.3 °F /  6.3 °C 36 °F /  2.2 °C 29.90in /  1012.4hPa West 4.5mph /  7.2km/h 12mph /  19.3km/h 75% 0.00in /  0mm 9 W/m2
18:09 43.3 °F /  6.3 °C 36.2 °F /  2.3 °C 29.90in /  1012.4hPa West 6.4mph /  10.3km/h 11mph /  17.7km/h 75.8% 0.00in /  0mm 7 W/m2
18:14 43.1 °F /  6.2 °C 36.2 °F /  2.3 °C 29.90in /  1012.4hPa West 6mph /  9.7km/h 11mph /  17.7km/h 76.6% 0.00in /  0mm 0 W/m2
18:19 43 °F /  6.1 °C 36.3 °F /  2.4 °C 29.90in /  1012.4hPa WSW 5.8mph /  9.3km/h 12mph /  19.3km/h 77% 0.00in /  0mm 0 W/m2
18:24 43 °F /  6.1 °C 36.6 °F /  2.6 °C 29.91in /  1012.8hPa West 4.6mph /  7.4km/h 11mph /  17.7km/h 77.8% 0.00in /  0mm 0 W/m2
18:29 42.8 °F /  6 °C 36.5 °F /  2.5 °C 29.91in /  1012.8hPa West 5.8mph /  9.3km/h 11mph /  17.7km/h 78% 0.00in /  0mm 0 W/m2
18:34 42.6 °F /  5.9 °C 36.3 °F /  2.4 °C 29.91in /  1012.8hPa WSW 3.2mph /  5.1km/h 10mph /  16.1km/h 78% 0.00in /  0mm 0 W/m2
18:39 42.6 °F /  5.9 °C 36.3 °F /  2.4 °C 29.91in /  1012.8hPa WSW 4.4mph /  7.1km/h 9mph /  14.5km/h 78% 0.00in /  0mm 0 W/m2
18:44 42.6 °F /  5.9 °C 36.4 °F /  2.4 °C 29.91in /  1012.8hPa WSW 4.5mph /  7.2km/h 10mph /  16.1km/h 78.4% 0.00in /  0mm 0 W/m2
18:49 42.6 °F /  5.9 °C 36.5 °F /  2.5 °C 29.91in /  1012.8hPa West 3mph /  4.8km/h 9mph /  14.5km/h 79% 0.00in /  0mm 0 W/m2
18:54 42.8 °F /  6 °C 36.7 °F /  2.6 °C 29.91in /  1012.8hPa West 6.6mph /  10.6km/h 12mph /  19.3km/h 79% 0.00in /  0mm 0 W/m2
18:59 42.8 °F /  6 °C 36.7 °F /  2.6 °C 29.91in /  1012.8hPa WSW 5.1mph /  8.2km/h 10mph /  16.1km/h 79% 0.00in /  0mm 0 W/m2
19:04 42.6 °F /  5.9 °C 36.5 °F /  2.5 °C 29.91in /  1012.8hPa West 1.4mph /  2.3km/h 7mph /  11.3km/h 79% 0.00in /  0mm 0 W/m2
19:09 42.5 °F /  5.8 °C 36.4 °F /  2.4 °C 29.91in /  1012.8hPa WNW 5.6mph /  9km/h 10mph /  16.1km/h 79% 0.00in /  0mm 0 W/m2
19:14 42.3 °F /  5.7 °C 36.1 °F /  2.3 °C 29.91in /  1012.8hPa WNW 5mph /  8km/h 10mph /  16.1km/h 79% 0.01in /  0.25mm 0 W/m2
19:19 42.1 °F /  5.6 °C 36 °F /  2.2 °C 29.92in /  1013.1hPa WNW 8.2mph /  13.2km/h 14mph /  22.5km/h 79% 0.02in /  0.51mm 0 W/m2
19:24 40.5 °F /  4.7 °C 35 °F /  1.7 °C 29.93in /  1013.4hPa WNW 9mph /  14.5km/h 17mph /  27.4km/h 80.6% 0.04in /  1.02mm 0 W/m2
19:29 39.7 °F /  4.3 °C 35 °F /  1.7 °C 29.92in /  1013.1hPa West 5.5mph /  8.9km/h 11mph /  17.7km/h 82.8% 0.04in /  1.02mm 0 W/m2
19:33 39.6 °F /  4.2 °C 35.1 °F /  1.7 °C 29.93in /  1013.4hPa West 5.3mph /  8.5km/h 8mph /  12.9km/h 84% 0.04in /  1.02mm 0 W/m2
19:39 39.4 °F /  4.1 °C 35.2 °F /  1.8 °C 29.93in /  1013.4hPa West 4.4mph /  7.1km/h 8mph /  12.9km/h 85% 0.04in /  1.02mm 0 W/m2
19:44 39.4 °F /  4.1 °C 35.4 °F /  1.9 °C 29.93in /  1013.4hPa West 4.4mph /  7.1km/h 7mph /  11.3km/h 85.6% 0.04in /  1.02mm 0 W/m2
19:49 39.4 °F /  4.1 °C 35.7 °F /  2.1 °C 29.93in /  1013.4hPa West 3.1mph /  5km/h 7mph /  11.3km/h 86.2% 0.04in /  1.02mm 0 W/m2
19:54 39.6 °F /  4.2 °C 36 °F /  2.2 °C 29.93in /  1013.4hPa WSW 6.2mph /  10km/h 12mph /  19.3km/h 87% 0.05in /  1.27mm 0 W/m2
19:59 39.4 °F /  4.1 °C 35.9 °F /  2.2 °C 29.93in /  1013.4hPa West 7.2mph /  11.6km/h 12mph /  19.3km/h 87.2% 0.06in /  1.52mm 0 W/m2
20:04 39.4 °F /  4.1 °C 36.1 °F /  2.3 °C 29.93in /  1013.4hPa West 3.9mph /  6.3km/h 9mph /  14.5km/h 88% 0.06in /  1.52mm 0 W/m2
20:09 39.4 °F /  4.1 °C 36.1 °F /  2.3 °C 29.94in /  1013.8hPa West 5.8mph /  9.3km/h 9mph /  14.5km/h 88% 0.06in /  1.52mm 0 W/m2
20:14 39.1 °F /  3.9 °C 35.9 °F /  2.2 °C 29.94in /  1013.8hPa West 4.5mph /  7.2km/h 9mph /  14.5km/h 88% 0.06in /  1.52mm 0 W/m2
20:19 39 °F /  3.9 °C 35.8 °F /  2.1 °C 29.94in /  1013.8hPa West 2.3mph /  3.7km/h 7mph /  11.3km/h 88% 0.05in /  1.27mm 0 W/m2
20:24 39 °F /  3.9 °C 35.9 °F /  2.2 °C 29.94in /  1013.8hPa West 3.7mph /  6km/h 6mph /  9.7km/h 88.4% 0.03in /  0.76mm 0 W/m2
20:29 39 °F /  3.9 °C 35.9 °F /  2.2 °C 29.94in /  1013.8hPa West 3.2mph /  5.1km/h 5mph /  8km/h 88.5% 0.02in /  0.51mm 0 W/m2
20:34 38.7 °F /  3.7 °C 35.9 °F /  2.2 °C 29.94in /  1013.8hPa West 4.8mph /  7.7km/h 7mph /  11.3km/h 89% 0.02in /  0.51mm 0 W/m2
20:39 38.5 °F /  3.6 °C 35.6 °F /  2 °C 29.94in /  1013.8hPa West 4.4mph /  7.1km/h 7mph /  11.3km/h 89% 0.02in /  0.51mm 0 W/m2
20:44 38.2 °F /  3.4 °C 35.3 °F /  1.8 °C 29.94in /  1013.8hPa West 3.9mph /  6.3km/h 8mph /  12.9km/h 89% 0.02in /  0.51mm 0 W/m2
20:49 38.1 °F /  3.4 °C 35.2 °F /  1.8 °C 29.95in /  1014.1hPa West 2mph /  3.2km/h 5mph /  8km/h 89% 0.02in /  0.51mm 0 W/m2
20:54 37.9 °F /  3.3 °C 35.1 °F /  1.7 °C 29.95in /  1014.1hPa West 2.9mph /  4.7km/h 6mph /  9.7km/h 89% 0.01in /  0.25mm 0 W/m2
20:59 37.8 °F /  3.2 °C 35 °F /  1.7 °C 29.95in /  1014.1hPa West 2.7mph /  4.3km/h 5mph /  8km/h 89% 0.01in /  0.25mm 0 W/m2
21:04 37.8 °F /  3.2 °C 35.1 °F /  1.7 °C 29.95in /  1014.1hPa West 2.7mph /  4.3km/h 4mph /  6.4km/h 90% 0.00in /  0mm 0 W/m2
21:09 37.7 °F /  3.2 °C 35 °F /  1.7 °C 29.95in /  1014.1hPa West 2.1mph /  3.4km/h 5mph /  8km/h 90% 0.00in /  0mm 0 W/m2
21:14 37.6 °F /  3.1 °C 34.9 °F /  1.6 °C 29.95in /  1014.1hPa West 2.8mph /  4.5km/h 6mph /  9.7km/h 90% 0.00in /  0mm 0 W/m2
21:19 37.6 °F /  3.1 °C 34.9 °F /  1.6 °C 29.95in /  1014.1hPa WNW 3.1mph /  5km/h 6mph /  9.7km/h 90% 0.00in /  0mm 0 W/m2
21:24 37.6 °F /  3.1 °C 34.9 °F /  1.6 °C 29.95in /  1014.1hPa WNW 3.2mph /  5.1km/h 6mph /  9.7km/h 90% 0.00in /  0mm 0 W/m2
21:29 37.6 °F /  3.1 °C 34.9 °F /  1.6 °C 29.95in /  1014.1hPa WNW 4mph /  6.4km/h 6mph /  9.7km/h 90% 0.00in /  0mm 0 W/m2
21:34 37.6 °F /  3.1 °C 34.9 °F /  1.6 °C 29.96in /  1014.4hPa WNW 2.7mph /  4.3km/h 5mph /  8km/h 90% 0.00in /  0mm 0 W/m2
21:39 37.6 °F /  3.1 °C 35 °F /  1.7 °C 29.96in /  1014.4hPa WNW 2.8mph /  4.5km/h 5mph /  8km/h 90.2% 0.00in /  0mm 0 W/m2
21:44 37.6 °F /  3.1 °C 35.2 °F /  1.8 °C 29.96in /  1014.4hPa WNW 2.4mph /  3.9km/h 6mph /  9.7km/h 91% 0.00in /  0mm 0 W/m2
21:49 37.6 °F /  3.1 °C 35.2 °F /  1.8 °C 29.96in /  1014.4hPa WNW 3.7mph /  6km/h 6mph /  9.7km/h 91% 0.00in /  0mm 0 W/m2
21:54 37.6 °F /  3.1 °C 35.2 °F /  1.8 °C 29.96in /  1014.4hPa WNW 2.4mph /  3.9km/h 6mph /  9.7km/h 91% 0.00in /  0mm 0 W/m2
21:59 37.6 °F /  3.1 °C 35.2 °F /  1.8 °C 29.96in /  1014.4hPa NW 3.9mph /  6.3km/h 7mph /  11.3km/h 91% 0.00in /  0mm 0 W/m2
22:04 37.7 °F /  3.2 °C 35.3 °F /  1.8 °C 29.96in /  1014.4hPa WNW 2.8mph /  4.5km/h 8mph /  12.9km/h 91% 0.00in /  0mm 0 W/m2
22:09 37.7 °F /  3.2 °C 35.3 °F /  1.8 °C 29.96in /  1014.4hPa WSW 3.2mph /  5.1km/h 6mph /  9.7km/h 91% 0.00in /  0mm 0 W/m2
22:14 37.7 °F /  3.2 °C 35.3 °F /  1.8 °C 29.96in /  1014.4hPa WSW 0.6mph /  1km/h 4mph /  6.4km/h 91% 0.00in /  0mm 0 W/m2
22:19 37.6 °F /  3.1 °C 35.2 °F /  1.8 °C 29.96in /  1014.4hPa WSW 1.5mph /  2.4km/h 4mph /  6.4km/h 91% 0.00in /  0mm 0 W/m2
22:24 37.3 °F /  2.9 °C 35 °F /  1.7 °C 29.96in /  1014.4hPa WSW 2.2mph /  3.5km/h 4mph /  6.4km/h 91% 0.00in /  0mm 0 W/m2
22:29 37.3 °F /  2.9 °C 35 °F /  1.7 °C 29.96in /  1014.4hPa WSW 1.7mph /  2.7km/h 4mph /  6.4km/h 91% 0.00in /  0mm 0 W/m2
22:34 37.2 °F /  2.9 °C 34.9 °F /  1.6 °C 29.97in /  1014.8hPa Calm   2mph /  3.2km/h 91% 0.00in /  0mm 0 W/m2
22:39 37.2 °F /  2.9 °C 34.9 °F /  1.6 °C 29.97in /  1014.8hPa WSW 0.8mph /  1.3km/h 3mph /  4.8km/h 91% 0.00in /  0mm 0 W/m2
22:44 37.1 °F /  2.8 °C 34.8 °F /  1.6 °C 29.97in /  1014.8hPa Calm   1mph /  1.6km/h 91% 0.00in /  0mm 0 W/m2
22:49 37 °F /  2.8 °C 34.7 °F /  1.5 °C 29.97in /  1014.8hPa WSW 0.2mph /  0.3km/h 2mph /  3.2km/h 91% 0.00in /  0mm 0 W/m2
22:54 36.9 °F /  2.7 °C 34.5 °F /  1.4 °C 29.97in /  1014.8hPa WSW 0.7mph /  1.1km/h 2mph /  3.2km/h 91% 0.00in /  0mm 0 W/m2
22:59 36.9 °F /  2.7 °C 34.5 °F /  1.4 °C 29.97in /  1014.8hPa WSW 0.7mph /  1.1km/h 3mph /  4.8km/h 91% 0.00in /  0mm 0 W/m2
23:04 36.9 °F /  2.7 °C 34.5 °F /  1.4 °C 29.97in /  1014.8hPa WSW 0.9mph /  1.4km/h 3mph /  4.8km/h 91% 0.00in /  0mm 0 W/m2
23:09 36.7 °F /  2.6 °C 34.3 °F /  1.3 °C 29.97in /  1014.8hPa WSW 0.4mph /  0.6km/h 2mph /  3.2km/h 91% 0.00in /  0mm 0 W/m2
23:14 36.7 °F /  2.6 °C 34.4 °F /  1.3 °C 29.97in /  1014.8hPa WSW 0.4mph /  0.6km/h 2mph /  3.2km/h 91.4% 0.00in /  0mm 0 W/m2
23:19 36.7 °F /  2.6 °C 34.5 °F /  1.4 °C 29.97in /  1014.8hPa WSW 1.2mph /  1.9km/h 3mph /  4.8km/h 91.8% 0.00in /  0mm 0 W/m2
23:24 36.6 °F /  2.6 °C 34.4 °F /  1.3 °C 29.97in /  1014.8hPa WSW 0.7mph /  1.1km/h 3mph /  4.8km/h 92% 0.00in /  0mm 0 W/m2
23:29 36.3 °F /  2.4 °C 34.2 °F /  1.2 °C 29.98in /  1015.1hPa WSW 1.3mph /  2.1km/h 2mph /  3.2km/h 91.8% 0.00in /  0mm 0 W/m2
23:34 36.1 °F /  2.3 °C 34 °F /  1.1 °C 29.98in /  1015.1hPa WSW 2mph /  3.2km/h 3mph /  4.8km/h 91.8% 0.00in /  0mm 0 W/m2
23:39 36 °F /  2.2 °C 33.8 °F /  1 °C 29.98in /  1015.1hPa WSW 1.7mph /  2.7km/h 4mph /  6.4km/h 92% 0.00in /  0mm 0 W/m2
23:44 35.9 °F /  2.2 °C 33.7 °F /  0.9 °C 29.98in /  1015.1hPa WSW 0.9mph /  1.4km/h 3mph /  4.8km/h 92% 0.00in /  0mm 0 W/m2
23:49 35.8 °F /  2.1 °C 33.6 °F /  0.9 °C 29.99in /  1015.5hPa WSW 0.2mph /  0.3km/h 1mph /  1.6km/h 92% 0.00in /  0mm 0 W/m2
23:54 35.6 °F /  2 °C 33.4 °F /  0.8 °C 29.99in /  1015.5hPa WSW 0.4mph /  0.6km/h 2mph /  3.2km/h 92% 0.00in /  0mm 0 W/m2
23:59 35.3 °F /  1.8 °C 33.2 °F /  0.7 °C 29.99in /  1015.5hPa WSW 0.7mph /  1.1km/h 2mph /  3.2km/h 92% 0.00in /  0mm 0 W/m2
Bath Spa Weather
Compliments of Weather Underground - 2 mb